createdAt,value
2019-05-01T00:00:16.358Z,11.42
2019-05-01T00:03:03.681Z,11.39
2019-05-01T00:05:36.064Z,11.25
2019-05-01T00:08:05.189Z,11.29
2019-05-01T00:10:34.252Z,11.23
2019-05-01T00:13:03.446Z,11.17
2019-05-01T00:15:34.287Z,11.08
2019-05-01T00:18:03.286Z,11.12
2019-05-01T00:20:32.621Z,11.08
2019-05-01T00:23:01.235Z,11.10
2019-05-01T00:25:30.209Z,10.98
2019-05-01T00:27:59.030Z,10.84
2019-05-01T00:30:30.425Z,10.88
2019-05-01T00:32:59.598Z,10.87
2019-05-01T00:35:28.486Z,10.84
2019-05-01T00:37:57.790Z,10.70
2019-05-01T00:40:27.091Z,10.73
2019-05-01T00:42:55.980Z,10.70
2019-05-01T00:45:24.873Z,10.65
2019-05-01T00:47:53.467Z,10.67
2019-05-01T00:50:22.351Z,10.64
2019-05-01T00:52:51.350Z,10.56
2019-05-01T00:55:58.127Z,10.55
2019-05-01T00:58:37.563Z,10.55
2019-05-01T01:01:29.546Z,10.39
2019-05-01T01:03:58.899Z,10.33
2019-05-01T01:06:27.889Z,10.30
2019-05-01T01:08:56.587Z,10.41
2019-05-01T01:11:25.204Z,10.37
2019-05-01T01:13:53.886Z,10.35
2019-05-01T01:16:23.152Z,10.27
2019-05-01T01:18:52.451Z,10.27
2019-05-01T01:21:22.059Z,10.30
2019-05-01T01:23:51.116Z,10.20
2019-05-01T01:26:20.149Z,10.24
2019-05-01T01:28:49.195Z,10.27
2019-05-01T01:31:18.438Z,10.27
2019-05-01T01:33:47.742Z,10.32
2019-05-01T01:36:16.452Z,10.35
2019-05-01T01:38:45.424Z,10.36
2019-05-01T01:41:14.618Z,10.38
2019-05-01T01:44:02.934Z,10.34
2019-05-01T01:46:32.242Z,10.35
2019-05-01T01:49:01.880Z,10.35
2019-05-01T01:51:30.938Z,10.36
2019-05-01T01:53:59.943Z,10.38
2019-05-01T01:56:28.945Z,10.34
2019-05-01T01:58:58.765Z,10.29
2019-05-01T02:02:01.881Z,10.37
2019-05-01T02:04:48.821Z,10.33
2019-05-01T02:07:18.202Z,10.27
2019-05-01T02:09:47.927Z,10.25
2019-05-01T02:12:16.761Z,10.37
2019-05-01T02:14:45.769Z,10.28
2019-05-01T02:17:14.685Z,10.19
2019-05-01T02:19:43.991Z,10.36
2019-05-01T02:22:12.876Z,10.39
2019-05-01T02:24:41.497Z,10.30
2019-05-01T02:27:15.062Z,10.29
2019-05-01T02:29:48.869Z,10.28
2019-05-01T02:32:18.541Z,10.19
2019-05-01T02:34:48.237Z,10.16
2019-05-01T02:37:17.696Z,10.02
2019-05-01T02:39:48.212Z,10.12
2019-05-01T02:42:18.384Z,9.99
2019-05-01T02:44:50.250Z,9.99
2019-05-01T02:47:23.156Z,9.96
2019-05-01T02:50:03.566Z,10.00
2019-05-01T02:52:35.071Z,10.00
2019-05-01T02:55:07.087Z,10.00
2019-05-01T02:57:37.587Z,10.05
2019-05-01T03:00:06.482Z,10.04
2019-05-01T03:02:35.727Z,9.94
2019-05-01T03:05:04.785Z,9.92
2019-05-01T03:07:35.327Z,9.78
2019-05-01T03:10:09.335Z,9.70
2019-05-01T03:12:39.743Z,9.61
2019-05-01T03:15:08.849Z,9.65
2019-05-01T03:17:54.224Z,9.70
2019-05-01T03:20:39.306Z,9.61
2019-05-01T03:23:18.940Z,9.64
2019-05-01T03:25:48.468Z,9.54
2019-05-01T03:28:17.492Z,9.58
2019-05-01T03:30:46.746Z,9.59
2019-05-01T03:33:15.351Z,9.54
2019-05-01T03:35:44.625Z,9.54
2019-05-01T03:38:13.356Z,9.56
2019-05-01T03:40:42.517Z,9.53
2019-05-01T03:43:11.507Z,9.61
2019-05-01T03:45:40.891Z,9.56
2019-05-01T03:48:09.614Z,9.57
2019-05-01T03:50:39.203Z,9.60
2019-05-01T03:53:08.709Z,9.62
2019-05-01T03:55:38.110Z,9.57
2019-05-01T03:58:07.304Z,9.63
2019-05-01T04:01:03.009Z,9.69
2019-05-01T04:03:50.746Z,9.56
2019-05-01T04:06:19.679Z,9.52
2019-05-01T04:08:48.302Z,9.50
2019-05-01T04:11:17.334Z,9.44
2019-05-01T04:13:46.333Z,9.43
2019-05-01T04:16:16.339Z,9.49
2019-05-01T04:18:45.650Z,9.61
2019-05-01T04:21:14.647Z,9.61
2019-05-01T04:23:43.938Z,9.63
2019-05-01T04:26:13.133Z,9.69
2019-05-01T04:28:57.052Z,9.65
2019-05-01T04:31:45.133Z,9.58
2019-05-01T04:34:20.659Z,9.53
2019-05-01T04:36:52.995Z,9.47
2019-05-01T04:39:22.487Z,9.51
2019-05-01T04:41:51.791Z,9.46
2019-05-01T04:44:21.095Z,9.42
2019-05-01T04:46:50.266Z,9.36
2019-05-01T04:49:19.279Z,9.20
2019-05-01T04:51:48.597Z,9.26
2019-05-01T04:54:17.550Z,9.32
2019-05-01T04:56:46.532Z,9.32
2019-05-01T04:59:15.222Z,9.30
2019-05-01T05:01:57.316Z,9.29
2019-05-01T05:04:26.334Z,9.34
2019-05-01T05:06:55.516Z,9.23
2019-05-01T05:09:43.862Z,9.33
2019-05-01T05:12:19.507Z,9.31
2019-05-01T05:14:53.119Z,9.36
2019-05-01T05:17:23.277Z,9.39
2019-05-01T05:19:52.329Z,9.47
2019-05-01T05:22:21.318Z,9.52
2019-05-01T05:24:50.314Z,9.48
2019-05-01T05:27:19.821Z,9.52
2019-05-01T05:29:50.248Z,9.46
2019-05-01T05:32:20.467Z,9.42
2019-05-01T05:34:49.687Z,9.47
2019-05-01T05:37:25.308Z,9.46
2019-05-01T05:39:55.841Z,9.50
2019-05-01T05:42:24.559Z,9.54
2019-05-01T05:44:53.309Z,9.46
2019-05-01T05:47:25.311Z,9.50
2019-05-01T05:49:53.368Z,9.58
2019-05-01T05:52:33.108Z,9.56
2019-05-01T05:55:09.665Z,9.65
2019-05-01T05:57:44.266Z,9.62
2019-05-01T06:00:32.548Z,9.68
2019-05-01T06:03:31.008Z,9.72
2019-05-01T06:06:11.810Z,9.71
2019-05-01T06:08:42.535Z,9.68
2019-05-01T06:11:29.670Z,9.72
2019-05-01T06:14:07.871Z,9.76
2019-05-01T06:16:52.311Z,9.77
2019-05-01T06:19:49.637Z,9.74
2019-05-01T06:22:34.933Z,9.71
2019-05-01T06:25:21.217Z,9.75
2019-05-01T06:27:38.778Z,9.65
2019-05-01T06:30:11.004Z,9.78
2019-05-01T06:32:40.054Z,9.79
2019-05-01T06:35:09.186Z,9.64
2019-05-01T06:37:55.936Z,9.74
2019-05-01T06:40:38.665Z,9.71
2019-05-01T06:43:12.056Z,9.73
2019-05-01T06:45:46.861Z,9.80
2019-05-01T06:48:17.788Z,9.87
2019-05-01T06:50:53.152Z,9.83
2019-05-01T06:53:22.803Z,9.83
2019-05-01T06:55:51.703Z,9.89
2019-05-01T06:58:21.843Z,9.88
2019-05-01T07:00:51.711Z,9.99
2019-05-01T07:03:20.973Z,9.91
2019-05-01T07:05:54.374Z,9.98
2019-05-01T07:08:24.676Z,10.02
2019-05-01T07:10:51.340Z,10.09
2019-05-01T07:13:20.469Z,10.01
2019-05-01T07:15:49.464Z,10.10
2019-05-01T07:18:18.798Z,10.09
2019-05-01T07:20:53.479Z,10.04
2019-05-01T07:23:23.280Z,10.07
2019-05-01T07:25:51.973Z,10.10
2019-05-01T07:28:21.293Z,10.17
2019-05-01T07:30:59.735Z,10.21
2019-05-01T07:33:28.812Z,10.18
2019-05-01T07:35:58.208Z,10.35
2019-05-01T07:38:26.920Z,10.29
2019-05-01T07:40:58.916Z,10.33
2019-05-01T07:43:45.363Z,10.47
2019-05-01T07:46:25.864Z,10.52
2019-05-01T07:48:54.660Z,10.56
2019-05-01T07:51:23.897Z,10.66
2019-05-01T07:53:52.905Z,10.52
2019-05-01T07:56:22.803Z,10.55
2019-05-01T07:58:53.418Z,10.56
2019-05-01T08:01:41.597Z,10.58
2019-05-01T08:04:13.746Z,10.54
2019-05-01T08:06:40.967Z,10.60
2019-05-01T08:09:11.298Z,10.58
2019-05-01T08:11:44.140Z,10.57
2019-05-01T08:14:12.011Z,10.74
2019-05-01T08:16:42.462Z,10.60
2019-05-01T08:19:18.428Z,10.65
2019-05-01T08:22:01.216Z,10.79
2019-05-01T08:24:27.523Z,10.75
2019-05-01T08:26:56.505Z,10.71
2019-05-01T08:29:50.566Z,10.65
2019-05-01T08:32:44.779Z,10.68
2019-05-01T08:35:16.752Z,10.58
2019-05-01T08:37:45.658Z,10.75
2019-05-01T08:40:18.722Z,10.73
2019-05-01T08:42:45.059Z,10.73
2019-05-01T08:45:42.552Z,10.84
2019-05-01T08:48:22.165Z,10.92
2019-05-01T08:50:54.591Z,10.96
2019-05-01T08:53:22.047Z,11.00
2019-05-01T08:55:52.116Z,11.03
2019-05-01T08:58:21.444Z,11.11
2019-05-01T09:00:50.045Z,11.07
2019-05-01T09:03:20.356Z,11.22
2019-05-01T09:05:52.188Z,11.19
2019-05-01T09:08:19.729Z,11.19
2019-05-01T09:10:49.781Z,11.33
2019-05-01T09:13:23.176Z,11.41
2019-05-01T09:15:49.458Z,11.40
2019-05-01T09:18:18.934Z,11.34
2019-05-01T09:20:49.588Z,11.22
2019-05-01T09:23:18.503Z,11.35
2019-05-01T09:25:56.294Z,11.27
2019-05-01T09:28:29.418Z,11.34
2019-05-01T09:31:02.163Z,11.28
2019-05-01T09:33:32.073Z,11.39
2019-05-01T09:36:01.515Z,11.27
2019-05-01T09:38:30.615Z,11.33
2019-05-01T09:40:59.214Z,11.52
2019-05-01T09:43:31.017Z,11.65
2019-05-01T09:45:59.435Z,11.69
2019-05-01T09:48:28.327Z,11.64
2019-05-01T09:51:06.718Z,11.76
2019-05-01T09:53:43.003Z,11.89
2019-05-01T09:56:15.493Z,11.89
2019-05-01T09:58:44.120Z,11.81
2019-05-01T10:01:12.830Z,11.72
2019-05-01T10:03:44.604Z,11.84
2019-05-01T10:06:12.759Z,11.77
2019-05-01T10:08:43.009Z,11.74
2019-05-01T10:11:11.900Z,11.61
2019-05-01T10:13:40.873Z,11.70
2019-05-01T10:16:09.596Z,11.78
2019-05-01T10:18:38.244Z,11.85
2019-05-01T10:21:06.909Z,11.85
2019-05-01T10:23:35.847Z,11.92
2019-05-01T10:26:06.849Z,11.96
2019-05-01T10:28:50.177Z,12.09
2019-05-01T10:31:34.320Z,12.08
2019-05-01T10:34:12.521Z,12.02
2019-05-01T10:36:49.749Z,12.04
2019-05-01T10:39:19.742Z,12.06
2019-05-01T10:41:47.912Z,12.05
2019-05-01T10:44:16.552Z,12.06
2019-05-01T10:46:45.428Z,12.08
2019-05-01T10:49:14.335Z,12.20
2019-05-01T10:51:42.988Z,12.13
2019-05-01T10:54:11.704Z,12.03
2019-05-01T10:56:40.349Z,12.13
2019-05-01T10:59:08.964Z,12.22
2019-05-01T11:01:53.732Z,12.26
2019-05-01T11:04:22.718Z,12.18
2019-05-01T11:06:52.032Z,12.03
2019-05-01T11:09:20.666Z,12.12
2019-05-01T11:11:49.596Z,12.03
2019-05-01T11:14:18.234Z,11.96
2019-05-01T11:16:47.648Z,11.97
2019-05-01T11:19:16.576Z,11.97
2019-05-01T11:21:46.416Z,11.96
2019-05-01T11:24:15.042Z,12.03
2019-05-01T11:26:43.966Z,12.08
2019-05-01T11:29:12.659Z,12.05
2019-05-01T11:31:54.108Z,12.08
2019-05-01T11:34:48.739Z,12.10
2019-05-01T11:37:42.012Z,12.19
2019-05-01T11:40:30.148Z,12.13
2019-05-01T11:42:59.134Z,12.06
2019-05-01T11:45:27.834Z,12.08
2019-05-01T11:47:56.709Z,12.19
2019-05-01T11:50:25.718Z,12.16
2019-05-01T11:52:54.707Z,12.18
2019-05-01T11:55:23.385Z,12.23
2019-05-01T11:57:52.378Z,12.30
2019-05-01T12:00:21.694Z,12.33
2019-05-01T12:02:50.459Z,12.35
2019-05-01T12:05:19.668Z,12.23
2019-05-01T12:07:48.583Z,12.10
2019-05-01T12:10:18.077Z,11.91
2019-05-01T12:12:46.869Z,11.99
2019-05-01T12:15:16.486Z,12.10
2019-05-01T12:17:49.394Z,12.10
2019-05-01T12:20:19.535Z,11.85
2019-05-01T12:22:51.248Z,11.86
2019-05-01T12:25:19.257Z,11.95
2019-05-01T12:27:48.113Z,12.02
2019-05-01T12:30:17.904Z,11.99
2019-05-01T12:32:46.897Z,11.80
2019-05-01T12:35:16.030Z,11.98
2019-05-01T12:37:45.135Z,11.96
2019-05-01T12:40:16.224Z,11.91
2019-05-01T12:42:45.529Z,11.92
2019-05-01T12:45:15.958Z,12.08
2019-05-01T12:47:48.129Z,12.01
2019-05-01T12:50:17.225Z,11.95
2019-05-01T12:53:03.958Z,11.91
2019-05-01T12:55:50.841Z,11.93
2019-05-01T12:58:19.480Z,11.94
2019-05-01T13:00:50.735Z,11.93
2019-05-01T13:03:19.771Z,11.89
2019-05-01T13:05:48.869Z,11.96
2019-05-01T13:08:17.874Z,11.91
2019-05-01T13:10:47.162Z,11.80
2019-05-01T13:13:16.362Z,11.85
2019-05-01T13:15:45.011Z,11.94
2019-05-01T13:18:13.631Z,11.98
2019-05-01T13:20:42.725Z,12.13
2019-05-01T13:23:11.605Z,11.98
2019-05-01T13:25:40.717Z,11.90
2019-05-01T13:28:35.107Z,11.83
2019-05-01T13:31:19.764Z,11.74
2019-05-01T13:33:48.964Z,11.69
2019-05-01T13:36:17.855Z,11.77
2019-05-01T13:38:46.757Z,11.74
2019-05-01T13:41:15.737Z,11.82
2019-05-01T13:43:44.645Z,11.77
2019-05-01T13:46:13.524Z,11.73
2019-05-01T13:48:42.254Z,11.80
2019-05-01T13:51:11.302Z,11.78
2019-05-01T13:53:40.200Z,11.74
2019-05-01T13:56:09.197Z,11.73
2019-05-01T13:58:38.186Z,11.83
2019-05-01T14:01:06.947Z,11.76
2019-05-01T14:03:35.591Z,11.70
2019-05-01T14:06:04.654Z,11.62
2019-05-01T14:08:33.269Z,11.63
2019-05-01T14:11:02.237Z,11.70
2019-05-01T14:13:31.130Z,11.78
2019-05-01T14:16:00.119Z,11.84
2019-05-01T14:18:29.019Z,11.86
2019-05-01T14:21:32.103Z,11.70
2019-05-01T14:24:13.179Z,11.79
2019-05-01T14:26:41.807Z,11.84
2019-05-01T14:29:11.067Z,11.88
2019-05-01T14:31:39.958Z,11.79
2019-05-01T14:34:08.955Z,11.78
2019-05-01T14:36:37.857Z,11.77
2019-05-01T14:39:07.469Z,11.78
2019-05-01T14:41:36.230Z,11.87
2019-05-01T14:44:05.251Z,11.73
2019-05-01T14:46:34.204Z,11.80
2019-05-01T14:49:03.117Z,11.83
2019-05-01T14:51:32.138Z,11.63
2019-05-01T14:54:01.406Z,11.60
2019-05-01T14:56:30.652Z,11.60
2019-05-01T14:58:59.268Z,11.58
2019-05-01T15:01:27.864Z,11.49
2019-05-01T15:03:56.778Z,11.47
2019-05-01T15:06:25.478Z,11.48
2019-05-01T15:08:54.092Z,11.43
2019-05-01T15:11:22.810Z,11.42
2019-05-01T15:14:03.603Z,11.26
2019-05-01T15:16:47.960Z,11.29
2019-05-01T15:19:21.648Z,11.26
2019-05-01T15:21:50.860Z,11.35
2019-05-01T15:24:20.108Z,11.30
2019-05-01T15:26:49.050Z,11.25
2019-05-01T15:29:17.796Z,11.28
2019-05-01T15:31:46.731Z,11.33
2019-05-01T15:34:15.619Z,11.34
2019-05-01T15:36:44.617Z,11.25
2019-05-01T15:39:20.439Z,11.33
2019-05-01T15:42:08.209Z,11.29
2019-05-01T15:44:37.763Z,11.27
2019-05-01T15:47:06.449Z,11.32
2019-05-01T15:49:35.490Z,11.29
2019-05-01T15:52:04.558Z,11.44
2019-05-01T15:54:33.190Z,11.45
2019-05-01T15:57:01.811Z,11.35
2019-05-01T15:59:31.310Z,11.29
2019-05-01T16:02:00.253Z,11.35
2019-05-01T16:04:28.879Z,11.25
2019-05-01T16:06:57.830Z,11.17
2019-05-01T16:09:26.836Z,11.18
2019-05-01T16:12:14.765Z,11.23
2019-05-01T16:14:46.239Z,11.26
2019-05-01T16:17:15.014Z,11.25
2019-05-01T16:19:44.310Z,11.22
2019-05-01T16:22:13.298Z,11.29
2019-05-01T16:24:42.007Z,11.23
2019-05-01T16:27:11.532Z,11.15
2019-05-01T16:29:40.380Z,11.12
2019-05-01T16:32:09.377Z,11.18
2019-05-01T16:34:38.031Z,11.09
2019-05-01T16:37:06.727Z,11.01
2019-05-01T16:39:54.685Z,11.05
2019-05-01T16:42:29.607Z,10.88
2019-05-01T16:44:58.517Z,10.96
2019-05-01T16:47:27.395Z,11.00
2019-05-01T16:49:56.268Z,10.99
2019-05-01T16:52:29.995Z,10.98
2019-05-01T16:54:59.652Z,11.01
2019-05-01T16:57:28.409Z,11.02
2019-05-01T16:59:57.387Z,10.97
2019-05-01T17:02:41.541Z,10.87
2019-05-01T17:05:21.661Z,10.89
2019-05-01T17:08:00.673Z,10.82
2019-05-01T17:10:33.512Z,10.88
2019-05-01T17:13:02.700Z,10.87
2019-05-01T17:15:37.920Z,10.96
2019-05-01T17:18:06.619Z,10.90
2019-05-01T17:20:35.519Z,10.85
2019-05-01T17:23:05.685Z,10.68
2019-05-01T17:25:34.947Z,10.68
2019-05-01T17:28:08.283Z,10.59
2019-05-01T17:30:40.201Z,10.65
2019-05-01T17:33:09.198Z,10.61
2019-05-01T17:35:41.833Z,10.66
2019-05-01T17:38:08.819Z,10.64
2019-05-01T17:40:37.538Z,10.52
2019-05-01T17:43:08.126Z,10.46
2019-05-01T17:45:36.822Z,10.55
2019-05-01T17:48:05.548Z,10.56
2019-05-01T17:50:34.167Z,10.49
2019-05-01T17:53:03.188Z,10.45
2019-05-01T17:55:31.799Z,10.54
2019-05-01T17:58:00.415Z,10.44
2019-05-01T18:00:40.693Z,10.49
2019-05-01T18:03:27.458Z,10.48
2019-05-01T18:06:10.922Z,10.37
2019-05-01T18:08:39.955Z,10.29
2019-05-01T18:11:09.242Z,10.33
2019-05-01T18:13:39.264Z,10.27
2019-05-01T18:16:07.967Z,10.27
2019-05-01T18:18:36.645Z,10.33
2019-05-01T18:21:05.441Z,10.28
2019-05-01T18:23:53.173Z,10.26
2019-05-01T18:26:45.045Z,10.30
2019-05-01T18:29:26.119Z,10.30
2019-05-01T18:31:54.850Z,10.30
2019-05-01T18:34:23.756Z,10.35
2019-05-01T18:36:59.632Z,10.28
2019-05-01T18:39:33.146Z,10.20
2019-05-01T18:42:04.559Z,10.24
2019-05-01T18:44:33.478Z,10.19
2019-05-01T18:47:02.374Z,10.17
2019-05-01T18:49:30.987Z,10.26
2019-05-01T18:52:00.232Z,10.17
2019-05-01T18:54:30.440Z,10.17
2019-05-01T18:56:59.588Z,10.07
2019-05-01T18:59:28.202Z,10.08
2019-05-01T19:01:57.223Z,10.16
2019-05-01T19:04:26.117Z,10.14
2019-05-01T19:06:55.317Z,10.02
2019-05-01T19:09:30.181Z,10.07
2019-05-01T19:11:55.576Z,10.09
2019-05-01T19:14:28.823Z,10.11
2019-05-01T19:16:55.189Z,10.07
2019-05-01T19:19:24.480Z,10.04
2019-05-01T19:21:53.235Z,9.99
2019-05-01T19:24:22.031Z,10.01
2019-05-01T19:26:50.988Z,10.01
2019-05-01T19:29:19.592Z,9.96
2019-05-01T19:31:48.565Z,9.97
2019-05-01T19:34:17.315Z,9.91
2019-05-01T19:36:46.917Z,9.85
2019-05-01T19:39:15.607Z,9.92
2019-05-01T19:41:49.261Z,9.77
2019-05-01T19:44:18.775Z,9.79
2019-05-01T19:46:45.092Z,9.76
2019-05-01T19:49:14.063Z,9.78
2019-05-01T19:51:43.038Z,9.77
2019-05-01T19:54:12.282Z,9.79
2019-05-01T19:56:40.905Z,9.81
2019-05-01T19:59:10.445Z,9.79
2019-05-01T20:01:44.657Z,9.76
2019-05-01T20:04:13.270Z,9.74
2019-05-01T20:06:40.676Z,9.72
2019-05-01T20:09:09.733Z,9.72
2019-05-01T20:11:38.692Z,9.78
2019-05-01T20:14:07.295Z,9.72
2019-05-01T20:16:36.309Z,9.81
2019-05-01T20:19:07.119Z,9.77
2019-05-01T20:21:36.081Z,9.73
2019-05-01T20:24:09.419Z,9.71
2019-05-01T20:26:35.215Z,9.71
2019-05-01T20:29:04.289Z,9.66
2019-05-01T20:31:33.051Z,9.71
2019-05-01T20:34:01.611Z,9.68
2019-05-01T20:36:30.562Z,9.67
2019-05-01T20:38:59.569Z,9.60
2019-05-01T20:41:28.445Z,9.63
2019-05-01T20:43:57.101Z,9.62
2019-05-01T20:46:27.983Z,9.64
2019-05-01T20:49:00.937Z,9.57
2019-05-01T20:51:27.516Z,9.55
2019-05-01T20:53:56.378Z,9.53
2019-05-01T20:56:39.196Z,9.57
2019-05-01T20:59:08.090Z,9.55
2019-05-01T21:01:36.980Z,9.56
2019-05-01T21:04:19.357Z,9.55
2019-05-01T21:07:07.326Z,9.51
2019-05-01T21:09:47.238Z,9.49
2019-05-01T21:12:11.252Z,9.52
2019-05-01T21:14:44.901Z,9.43
2019-05-01T21:17:13.791Z,9.44
2019-05-01T21:19:44.660Z,9.40
2019-05-01T21:22:14.275Z,9.39
2019-05-01T21:24:44.390Z,9.37
2019-05-01T21:27:13.931Z,9.31
2019-05-01T21:29:44.521Z,9.35
2019-05-01T21:32:18.411Z,9.32
2019-05-01T21:34:44.200Z,9.31
2019-05-01T21:37:12.813Z,9.23
2019-05-01T21:39:43.615Z,9.26
2019-05-01T21:42:15.926Z,9.24
2019-05-01T21:44:43.635Z,9.20
2019-05-01T21:47:13.930Z,9.20
2019-05-01T21:49:43.320Z,9.25
2019-05-01T21:52:13.491Z,9.21
2019-05-01T21:54:43.301Z,9.22
2019-05-01T21:57:17.172Z,9.17
2019-05-01T21:59:44.706Z,9.20
2019-05-01T22:02:13.966Z,9.10
2019-05-01T22:04:42.962Z,9.11
2019-05-01T22:07:11.617Z,9.09
2019-05-01T22:09:45.591Z,9.12
2019-05-01T22:12:14.394Z,9.17
2019-05-01T22:14:53.982Z,9.07
2019-05-01T22:17:51.648Z,9.04
2019-05-01T22:20:27.619Z,9.09
2019-05-01T22:23:01.054Z,9.02
2019-05-01T22:25:36.884Z,9.07
2019-05-01T22:28:30.224Z,9.05
2019-05-01T22:31:11.995Z,8.99
2019-05-01T22:33:41.404Z,9.02
2019-05-01T22:36:10.674Z,9.07
2019-05-01T22:38:39.236Z,9.03
2019-05-01T22:41:12.223Z,9.03
2019-05-01T22:43:41.491Z,8.98
2019-05-01T22:46:17.203Z,9.01
2019-05-01T22:48:46.119Z,9.01
2019-05-01T22:51:21.691Z,8.99
2019-05-01T22:53:54.609Z,8.96
2019-05-01T22:56:24.556Z,9.02
2019-05-01T22:58:53.593Z,9.01
2019-05-01T23:01:23.389Z,8.98
2019-05-01T23:04:01.129Z,8.98
2019-05-01T23:06:30.691Z,9.02
2019-05-01T23:08:59.596Z,9.02
2019-05-01T23:11:30.494Z,9.06
2019-05-01T23:13:59.112Z,8.99
2019-05-01T23:16:31.959Z,9.00
2019-05-01T23:19:00.616Z,9.02
2019-05-01T23:21:29.882Z,8.95
2019-05-01T23:24:01.883Z,8.96
2019-05-01T23:26:29.526Z,8.95
2019-05-01T23:28:58.477Z,8.95
2019-05-01T23:31:27.599Z,9.04
2019-05-01T23:33:56.518Z,8.98
2019-05-01T23:36:25.788Z,8.96
2019-05-01T23:38:54.416Z,8.97
2019-05-01T23:41:44.747Z,8.93
2019-05-01T23:43:53.697Z,9.00
2019-05-01T23:46:22.992Z,9.03
2019-05-01T23:48:51.882Z,8.97
2019-05-01T23:51:23.669Z,9.03
2019-05-01T23:53:52.128Z,8.98
2019-05-01T23:56:21.042Z,8.98
2019-05-01T23:58:49.915Z,9.01
